Latest Weather Observations for Swan Island

IDT60801

Issued at 4:21 am EDT Friday 2 December 2022 (issued every 10 minutes, with the page automatically refreshed every 10 minutes)

About weather observations | Map of weather stations | Latest weather observations for TAS | Other Formats
Station Details ID: 092123 Name: SWAN ISLAND Lat: -40.73 Lon: 148.12 Height: 15.0 m
Data from the previous 72 hours. | See also: Recent months at Swan Island
Date/Time
EDT
Temp
°C
App
Temp
°C
Dew
Point
°C
Rel
Hum
%
Delta-T
°C
Wind Press
QNH
hPa
Press
MSL
hPa
Rain since
9am
mm
Dir  Spd
km/h
Gust
km/h
Spd
kts
Gust
kts
02/04:00am 13.6 10.6 9.3 75 2.2 ESE 15 19 8 10 1019.0 1018.9 0.0
02/03:30am 13.4 9.6 8.9 74 2.3 ESE 19 22 10 12 1019.2 1019.1 0.0
02/03:00am 13.2 9.1 8.7 74 2.2 ESE 20 28 11 15 1019.3 1019.2 0.0
02/02:30am 13.1 8.4 9.4 78 1.9 E 24 32 13 17 1019.4 1019.3 0.0
02/02:00am 13.3 8.8 10.1 81 1.6 E 24 30 13 16 1019.5 1019.4 0.0
02/01:30am 13.8 8.8 8.2 69 2.8 ESE 24 32 13 17 1019.5 1019.4 0.0
02/01:00am 13.9 8.5 8.1 68 2.9 ESE 26 30 14 16 1019.7 1019.6 0.0
02/12:30am 13.8 8.4 8.0 68 2.9 ESE 26 32 14 17 1019.8 1019.7 0.0
02/12:00am 13.9 8.3 8.7 71 2.6 ESE 28 33 15 18 1019.9 1019.8 0.0
 
Date/Time
EDT
Temp
°C
App
Temp
°C
Dew
Point
°C
Rel
Hum
%
Delta-T
°C
Wind Press
QNH
hPa
Press
MSL
hPa
Rain since
9am
mm
Dir  Spd
km/h
Gust
km/h
Spd
kts
Gust
kts
01/11:30pm 13.9 8.3 8.7 71 2.6 SE 28 33 15 18 1019.8 1019.7 0.0
01/11:00pm 14.0 8.5 9.0 72 2.5 SE 28 33 15 18 1019.7 1019.6 0.0
01/10:30pm 14.0 8.4 8.8 71 2.6 ESE 28 32 15 17 1019.8 1019.7 0.0
01/10:00pm 13.9 8.2 8.3 69 2.8 ESE 28 35 15 19 1019.6 1019.5 0.0
01/09:30pm 14.0 8.3 8.4 69 2.8 SE 28 35 15 19 1019.5 1019.4 0.0
01/09:00pm 13.9 7.8 8.1 68 2.9 SE 30 35 16 19 1019.0 1018.9 0.0
01/08:30pm 14.1 8.1 8.7 70 2.7 ESE 30 35 16 19 1018.8 1018.7 0.0
01/08:00pm 14.2 8.4 7.9 66 3.1 SE 28 33 15 18 1018.7 1018.6 0.0
01/07:30pm 14.2 8.5 8.2 67 3.0 SE 28 35 15 19 1018.8 1018.7 0.0
01/07:00pm 14.5 9.2 8.5 67 3.0 SE 26 33 14 18 1018.5 1018.4 0.0
01/06:30pm 15.1 9.8 8.6 65 3.3 ESE 26 33 14 18 1017.8 1017.7 0.0
01/06:00pm 15.3 9.7 8.8 65 3.3 SE 28 33 15 18 1017.6 1017.5 0.0
01/05:30pm 15.4 9.5 8.9 65 3.3 SE 30 37 16 20 1017.5 1017.4 0.0
01/05:00pm 16.2 10.9 9.8 66 3.3 SE 28 35 15 19 1017.2 1017.1 0.0
01/04:30pm 15.9 11.0 9.8 67 3.2 SE 26 35 14 19 1017.1 1017.0 0.0
01/04:00pm 16.1 10.9 10.4 69 3.0 SE 28 35 15 19 1016.9 1016.8 0.0
01/03:30pm 16.1 10.2 10.4 69 3.0 SE 32 39 17 21 1016.8 1016.7 0.0
01/03:00pm 16.4 10.5 10.5 68 3.1 SE 32 39 17 21 1016.9 1016.8 0.0
01/02:30pm 16.1 10.2 10.4 69 3.0 SE 32 43 17 23 1017.0 1016.9 0.0
01/02:00pm 15.9 9.4 10.4 70 2.9 SE 35 44 19 24 1016.9 1016.8 0.0
01/01:30pm 16.6 10.9 11.1 70 3.0 SE 32 39 17 21 1016.9 1016.8 0.0
01/01:00pm 16.9 11.0 11.0 68 3.2 ESE 33 37 18 20 1016.8 1016.7 0.0
01/12:30pm 17.5 11.7 11.5 68 3.3 ESE 33 39 18 21 1016.8 1016.7 0.0
01/12:00pm 16.7 11.2 10.5 67 3.3 ESE 30 35 16 19 1016.9 1016.8 0.0
01/11:30am 16.6 11.3 11.3 71 2.9 ESE 30 35 16 19 1017.0 1016.9 0.0
01/11:00am 18.1 13.7 11.7 66 3.5 ESE 26 35 14 19 1016.8 1016.7 0.0
01/10:30am 16.6 11.6 10.9 69 3.1 ESE 28 33 15 18 1016.8 1016.7 0.0
01/10:00am 16.7 12.4 10.8 68 3.1 SE 24 32 13 17 1016.9 1016.8 0.0
01/09:30am 16.8 12.2 11.1 69 3.1 ESE 26 32 14 17 1016.9 1016.8 0.0
01/09:00am 16.3 12.0 10.6 69 3.0 SE 24 32 13 17 1016.6 1016.5 0.0
01/08:30am 16.3 12.7 11.7 74 2.5 SE 22 30 12 16 1016.5 1016.4 0.0
01/08:00am 15.4 11.3 11.4 77 2.1 SE 24 30 13 16 1016.1 1016.0 0.0
01/07:30am 14.7 10.6 11.3 80 1.8 SE 24 30 13 16 1015.7 1015.6 0.0
01/07:00am 14.2 11.4 11.2 82 1.6 SE 17 22 9 12 1015.6 1015.5 0.0
01/06:30am 13.9 11.0 11.1 83 1.5 SSE 17 26 9 14 1015.5 1015.4 0.0
01/06:00am 13.8 10.9 11.0 83 1.5 SSE 17 24 9 13 1015.3 1015.2 0.0
01/05:30am 13.5 12.2 11.2 86 1.2 SSW 9 15 5 8 1015.2 1015.1 0.0
01/05:00am 13.8 12.5 11.1 84 1.4 W 9 17 5 9 1014.9 1014.8 0.0
01/04:30am 14.2 11.8 11.5 84 1.4 S 15 22 8 12 1014.5 1014.4 0.0
01/04:00am 14.0 11.2 11.5 85 1.3 S 17 22 9 12 1014.4 1014.3 0.0
01/03:30am 13.9 10.1 11.1 83 1.5 SSE 22 28 12 15 1014.3 1014.2 0.0
01/03:00am 14.4 11.1 11.6 83 1.5 S 20 30 11 16 1014.5 1014.4 0.0
01/02:30am 14.6 11.3 11.7 83 1.6 S 20 28 11 15 1014.5 1014.4 0.0
01/02:00am 14.7 12.5 12.0 84 1.5 S 15 22 8 12 1014.5 1014.4 0.0
01/01:30am 14.8 13.4 12.3 85 1.4 S 11 17 6 9 1014.5 1014.4 0.0
01/01:00am 14.6 13.1 11.9 84 1.5 SW 11 15 6 8 1014.4 1014.3 0.0
01/12:30am 14.5 12.6 11.7 83 1.5 SW 13 19 7 10 1014.4 1014.3 0.0
01/12:00am 14.1 12.6 11.8 86 1.2 SW 11 15 6 8 1014.4 1014.3 0.0
 
Date/Time
EDT
Temp
°C
App
Temp
°C
Dew
Point
°C
Rel
Hum
%
Delta-T
°C
Wind Press
QNH
hPa
Press
MSL
hPa
Rain since
9am
mm
Dir  Spd
km/h
Gust
km/h
Spd
kts
Gust
kts
30/11:30pm 13.7 12.4 11.2 85 1.3 WSW 9 13 5 7 1014.2 1014.1 0.0
30/11:00pm 14.3 12.7 11.5 83 1.5 W 11 17 6 9 1014.0 1013.9 0.0
30/10:30pm 14.6 12.3 11.7 83 1.6 WNW 15 22 8 12 1013.9 1013.8 0.0
30/10:00pm 14.6 12.1 12.3 86 1.3 W 17 24 9 13 1013.8 1013.7 0.0
30/09:30pm 14.7 11.3 12.4 86 1.3 W 22 30 12 16 1013.8 1013.7 0.0
30/09:00pm 14.7 11.6 12.2 85 1.4 WNW 20 30 11 16 1013.5 1013.4 0.0
30/08:30pm 14.9 10.3 12.2 84 1.5 WNW 28 35 15 19 1013.4 1013.3 0.0
30/08:00pm 15.1 10.8 12.1 82 1.6 WNW 26 35 14 19 1013.4 1013.3 0.0
30/07:30pm 15.5 10.8 12.1 80 1.9 WNW 28 39 15 21 1013.0 1012.9 0.0
30/07:00pm 15.6 10.1 11.8 78 2.1 WNW 32 41 17 22 1012.7 1012.6 0.0
30/06:30pm 15.9 10.2 11.7 76 2.3 WNW 33 44 18 24 1012.4 1012.3 0.0
30/06:00pm 16.3 11.2 11.9 75 2.4 WNW 30 41 16 22 1012.5 1012.4 0.0
30/05:30pm 16.5 11.0 11.9 74 2.5 WNW 32 46 17 25 1012.5 1012.4 0.0
30/05:00pm 16.6 11.4 11.7 73 2.7 WNW 30 44 16 24 1012.5 1012.4 0.0
30/04:30pm 16.8 11.0 11.5 71 2.9 WNW 33 50 18 27 1012.5 1012.4 0.0
30/04:00pm 16.9 11.6 11.4 70 3.0 WNW 30 44 16 24 1013.0 1012.9 0.0
30/03:30pm 17.0 11.8 11.7 71 2.9 WNW 30 43 16 23 1013.2 1013.1 0.0
30/03:00pm 17.1 11.6 11.8 71 2.9 WNW 32 44 17 24 1013.4 1013.3 0.0
30/02:34pm 17.2 12.5 11.9 71 2.9 WNW 28 46 15 25 1013.6 1013.5 0.0
30/02:30pm 17.2 12.2 12.1 72 2.8 WNW 30 46 16 25 1013.6 1013.5 0.0
30/02:00pm 16.6 10.4 11.3 71 2.9 WNW 35 46 19 25 1013.9 1013.8 0.0
30/01:30pm 16.7 10.4 11.0 69 3.1 WNW 35 46 19 25 1014.1 1014.0 0.0
30/01:00pm 17.1 11.9 11.6 70 3.0 WNW 30 41 16 22 1014.3 1014.2 0.0
30/12:30pm 16.4 10.6 11.6 73 2.6 WNW 33 44 18 24 1014.4 1014.3 0.0
30/12:00pm 16.8 11.0 11.5 71 2.9 WNW 33 50 18 27 1014.8 1014.7 0.0
30/11:30am 17.1 11.3 11.4 69 3.1 WNW 33 50 18 27 1014.7 1014.6 0.0
30/11:00am 17.1 11.3 10.7 66 3.4 WNW 32 54 17 29 1014.9 1014.8 0.0
30/10:52am 16.7 10.8 10.5 67 3.3 WNW 32 54 17 29 1014.9 1014.8 0.0
30/10:30am 16.9 11.1 10.7 67 3.3 WNW 32 48 17 26 1014.9 1014.8 0.0
30/10:18am 16.6 11.5 10.7 68 3.1 WNW 28 46 15 25 1014.9 1014.8 0.0
30/10:00am 17.0 12.0 11.1 68 3.2 WNW 28 43 15 23 1015.1 1015.0 0.0
30/09:30am 15.6 9.7 11.0 74 2.5 WNW 33 43 18 23 1015.2 1015.1 0.0
30/09:00am 16.4 10.5 9.1 62 3.8 W 30 44 16 24 1015.3 1015.2 0.0
30/08:30am 16.0 10.6 9.4 65 3.4 WNW 28 41 15 22 1015.0 1014.9 0.0
30/08:03am 15.5 9.7 9.4 67 3.1 WNW 30 48 16 26 1014.9 1014.8 0.0
30/08:00am 15.4 8.9 8.9 65 3.3 WNW 33 48 18 26 1014.8 1014.7 0.0
30/07:30am 15.3 9.3 8.5 64 3.4 WNW 30 44 16 24 1014.7 1014.6 0.0
30/07:00am 14.6 8.0 7.6 63 3.5 WNW 32 50 17 27 1014.6 1014.5 0.0
30/06:55am 14.5 7.8 7.3 62 3.5 WNW 32 50 17 27 1014.6 1014.5 0.0
30/06:30am 14.2 7.6 7.7 65 3.2 W 32 48 17 26 1014.5 1014.4 0.0
30/06:02am 13.7 6.8 7.2 65 3.2 W 33 54 18 29 1014.2 1014.1 0.0
30/06:00am 13.7 6.5 7.5 66 3.0 W 35 54 19 29 1014.2 1014.1 0.0
30/05:30am 13.2 5.5 7.2 67 2.9 W 37 59 20 32 1014.0 1013.9 0.0
30/05:26am 13.2 6.1 7.9 70 2.6 W 35 56 19 30 1014.0 1013.9 0.0
30/05:00am 13.1 6.0 8.0 71 2.5 W 35 52 19 28 1013.8 1013.7 0.0
30/04:48am 13.1 6.6 8.0 71 2.5 W 32 50 17 27 1013.7 1013.6 0.0
30/04:30am 13.0 6.4 8.7 75 2.2 W 33 50 18 27 1013.6 1013.5 0.0
30/04:00am 13.1 4.9 8.4 73 2.3 W 41 52 22 28 1013.4 1013.3 0.0
30/03:30am 13.0 4.9 8.5 74 2.2 W 41 54 22 29 1013.2 1013.1 0.0
30/03:00am 13.0 5.2 8.3 73 2.3 W 39 52 21 28 1013.2 1013.1 0.0
30/02:30am 13.0 6.3 8.3 73 2.3 W 33 46 18 25 1013.3 1013.2 0.0
30/02:00am 13.0 6.0 7.0 67 2.9 W 33 46 18 25 1013.4 1013.3 0.0
30/01:30am 13.2 7.5 8.3 72 2.4 W 28 41 15 22 1013.4 1013.3 0.0
30/01:00am 13.4 8.1 8.3 71 2.5 W 26 39 14 21 1013.5 1013.4 0.0
30/12:30am 13.3 8.1 7.1 66 3.0 W 24 37 13 20 1014.0 1013.9 0.0
30/12:00am 13.6 7.3 7.2 65 3.1 W 30 41 16 22 1014.1 1014.0 0.0
 
Date/Time
EDT
Temp
°C
App
Temp
°C
Dew
Point
°C
Rel
Hum
%
Delta-T
°C
Wind Press
QNH
hPa
Press
MSL
hPa
Rain since
9am
mm
Dir  Spd
km/h
Gust
km/h
Spd
kts
Gust
kts
29/11:30pm 13.8 7.6 9.5 75 2.2 W 32 41 17 22 1014.0 1013.9 0.0
29/11:00pm 13.8 8.0 9.6 76 2.2 W 30 41 16 22 1014.1 1014.0 0.0
29/10:30pm 13.8 6.7 9.6 76 2.2 W 37 48 20 26 1014.0 1013.9 0.0
29/10:00pm 13.9 6.8 9.5 75 2.3 W 37 50 20 27 1013.8 1013.7 0.0
29/09:30pm 14.0 6.5 9.4 74 2.4 W 39 52 21 28 1013.6 1013.5 0.0
29/09:00pm 13.9 6.8 9.5 75 2.3 W 37 50 20 27 1013.3 1013.2 0.0
29/08:30pm 14.0 7.0 9.8 76 2.2 W 37 52 20 28 1013.1 1013.0 0.0
29/08:00pm 14.3 7.2 9.5 73 2.5 W 37 52 20 28 1013.0 1012.9 0.0
29/07:30pm 15.2 9.3 9.1 67 3.1 W 30 44 16 24 1012.7 1012.6 0.0
29/07:00pm 15.6 10.6 9.7 68 3.1 WNW 26 39 14 21 1012.4 1012.3 0.0
29/06:30pm 15.7 10.1 8.9 64 3.5 WNW 28 39 15 21 1012.1 1012.0 0.0
29/06:00pm 16.0 10.5 9.0 63 3.6 WNW 28 44 15 24 1011.8 1011.7 0.0
29/05:32pm 16.1 9.7 8.6 61 3.8 WNW 32 52 17 28 1011.7 1011.6 0.0
29/05:30pm 15.8 9.0 7.6 58 4.1 WNW 33 52 18 28 1011.6 1011.5 0.0
29/05:00pm 15.9 9.3 7.9 59 4.0 WNW 32 52 17 28 1011.5 1011.4 0.0
29/04:51pm 15.9 9.2 8.2 60 3.9 WNW 33 52 18 28 1011.4 1011.3 0.0
29/04:30pm 15.8 9.1 8.1 60 3.9 WNW 33 48 18 26 1011.5 1011.4 0.0
29/04:19pm 16.1 9.1 8.6 61 3.8 WNW 35 56 19 30 1011.2 1011.1 0.0
29/04:00pm 15.9 9.3 8.4 61 3.8 WNW 33 50 18 27 1011.4 1011.3 0.0
29/03:30pm 16.1 9.5 7.6 57 4.2 WNW 32 44 17 24 1011.2 1011.1 0.0
29/03:00pm 16.3 9.8 8.3 59 4.1 WNW 32 50 17 27 1011.1 1011.0 0.0
29/02:56pm 16.2 9.5 7.4 56 4.4 WNW 32 50 17 27 1011.1 1011.0 0.0
29/02:30pm 16.1 8.9 7.8 58 4.2 WNW 35 48 19 26 1011.0 1010.9 0.0
29/02:05pm 16.8 10.5 7.2 53 4.8 WNW 30 50 16 27 1011.2 1011.1 0.0
29/02:00pm 16.5 10.4 6.6 52 4.9 WNW 28 46 15 25 1011.3 1011.2 0.0
29/01:30pm 16.2 9.2 6.9 54 4.6 W 33 48 18 26 1011.1 1011.0 0.0
29/01:08pm 17.0 11.1 8.9 59 4.2 WNW 30 48 16 26 1011.0 1010.9 0.0
29/01:00pm 16.2 9.5 7.2 55 4.5 WNW 32 48 17 26 1011.0 1010.9 0.0
29/12:30pm 15.9 8.6 7.1 56 4.3 W 35 50 19 27 1010.7 1010.7 0.0
29/12:00pm 16.0 9.2 7.0 55 4.4 W 32 52 17 28 1010.9 1010.8 0.0
29/11:58am 16.0 8.9 6.4 53 4.7 W 33 52 18 28 1010.7 1010.7 0.0
29/11:30am 15.7 8.2 6.4 54 4.5 W 35 44 19 24 1010.5 1010.5 0.0
29/11:00am 15.5 8.4 6.5 55 4.4 W 33 46 18 25 1010.3 1010.3 0.0
29/10:30am 15.0 8.4 6.0 55 4.3 W 30 43 16 23 1010.0 1010.0 0.0
29/10:00am 15.0 7.3 5.5 53 4.5 W 35 52 19 28 1009.2 1009.2 0.0
29/09:33am 14.4 8.1 5.7 56 4.1 W 28 46 15 25 1009.3 1009.3 0.0
29/09:30am 14.5 7.8 5.6 55 4.2 W 30 43 16 23 1009.2 1009.2 0.0
29/09:00am 14.8 8.2 5.9 55 4.3 W 30 39 16 21 1008.9 1008.9 2.6
29/08:30am 13.7 7.6 4.8 55 4.1 W 26 39 14 21 1008.5 1008.5 2.6
29/08:00am 13.4 8.1 5.1 57 3.9 WSW 22 35 12 19 1008.2 1008.2 2.6
29/07:30am 12.8 7.6 5.5 61 3.4 W 22 37 12 20 1007.6 1007.6 2.6
29/07:00am 12.3 7.1 5.5 63 3.2 W 22 37 12 20 1006.6 1006.6 2.6
29/06:30am 11.9 7.7 5.8 66 2.8 WSW 17 26 9 14 1006.1 1006.1 2.6
29/06:00am 11.4 6.9 6.1 70 2.5 WSW 19 32 10 17 1005.9 1005.9 2.6
29/05:30am 11.2 4.9 5.9 70 2.5 W 28 44 15 24 1005.2 1005.2 2.6
29/05:00am 11.2 4.9 5.9 70 2.5 WSW 28 46 15 25 1004.4 1004.4 2.6
29/04:30am 11.4 5.0 6.9 74 2.1 W 30 48 16 26 1004.1 1004.1 2.6

Other formats

Comma delimited format used in spreadsheet applications
http://www.bom.gov.au/fwo/IDT60801/IDT60801.95985.axf

JavaScript Object Notation format (JSON) in row-major order
http://www.bom.gov.au/fwo/IDT60801/IDT60801.95985.json

Data quality

Most of these data are generated automatically and are frequently updated. Quality checks on data are not normally performed. It is possible for incorrect values to appear. Refer to information at About Latest Weather Observations and please check the disclaimer before using these data.